Sharpsburg, Ohio
Current Conditions -  °F | °C
As of 7:55 AM on Wednesday 22 Oct 2014 (Local Time) from KUNI Reporting Station
Overcast Overcast  
Wind Chill: 43°   Ceiling: 1400
Heat Index: 46°   Visibility: 10mi
Dew Point: 41°   Wind: 6mph
Humidity: 83%   Direction: 310°NW
Pressure: 30.19"   Gusts: NA
Location:  39.44°N, 81.91°W
Report Text: KUNI 221155Z AUTO 31005KT 10SM OVC014 08/05 A3019 RMK AO2 60001 70001 T00790052 10079 20073
Loading
Personal Weather Stations






























Interactive Weather Map
Tropical Storm Tracking
New forecast layout! Learn more

10-Day Weather Forecast

Advertisements
Track Severe Weather on mobile